Selawik, AK

03:03 PM AKDT del 25 Luglio 2014 (GMT -0800)
Baker Memorial (PAIK) Alt. 151 ft | 66.98 °N, 160.44 °W | Change Station

Current weather conditions updated 1 hour ago

Clear
Sereno
53 °F
Sembra 53 °F
N
4
Vento Variabile Vento da Variabile

Oggi si prevede un notevole aumento della temperatura rispetto a ieri.

Oggi
Massima -- | Minima -- °F
--% Possibilità di precip.
Ieri
Massima -- | Minima -- °F
Precip. -- in
4:48 AM 0:40 AM
Luna calante, 1% visible
Pressione 30.15 in
Visibilità 10.0 miglia
Nuvole Sereno
Punto di rugiada 33 °F
Umidità 47%
Piovosità 0.00 in
Spessore del manto nevoso Non disponibile.
Raggi UV 5 fuori da 12
Polline Non disponibile.
Qualità dell'aria Non disponibile.
Flu Activity Non disponibile.
METAR PAIK 252201Z AUTO VRB03KT 10SM CLR 12/01 A3003 RMK AO2 SLP209 T01170006

More Conditions Fewer Conditions

Pressione 30.15 in
Visibilità 10.0 miglia
Nuvole Sereno
Punto di rugiada 33 °F
Umidità 47%
Piovosità 0.00 in
Spessore del manto nevoso Non disponibile.
Raggi UV 5 fuori da 12
Polline Non disponibile.
Qualità dell'aria Non disponibile.
Flu Activity Non disponibile.
METAR PAIK 252201Z AUTO VRB03KT 10SM CLR 12/01 A3003 RMK AO2 SLP209 T01170006

More Conditions Fewer Conditions

10-Day Weather Forecast

Almanac

Astronomia

Jul. 25, 2014 Alba Tramonto
Ora attuale 04:48 AKDT 00:40 AKDT
Crepuscolo civile Sun does not rise 02:14 AKDT
Crepuscolo nautico Sun does not rise Sun does not rise
Crepuscolo astronomico Sun does not rise Sun does not rise
Luna 04:33 AKDT 22:57 AKDT
Estensione della luce visibile 24h 00m
Lunghezza del giorno
19h 52m
Tomorrow will be 8m 52s shorter.
Luna calante, 1% of the Moon is Illuminated
Oggi
Luna calante
Lug 26
Nuovo
Ago 3
Primo quarto
Ago 10
Luna piena
Ago 17
Ultimo quarto

Gli estremi di oggi

State Highs State Lows

Community

WunderPhotos

Upload Photos

1,737,436 foto caricate!

Nearby

Qualità dell'aria

Not available.

Profondità neve

Stazione Profondità Altitudine
Rocky Point 2 in 500 ft
Gobblers Knob 0 in 2030 ft
Coldfoot 0 in 1040 ft
Atigun Pass 0 in 4800 ft
Little Chena Ridge 1 in 2000 ft

Attività sismica

Città  Distanza Mag. Data & Ora
Non sono state riportate attività sismiche nelle vicinanze.
Minimo Magnitudo Mostrato è 2.5.

Temperature delle acque costiere

Località Temperatura
Nessun dato dalle stazioni

Stazioni meteo nelle vicinanze

Ubicazione della stazione Temp. Punto di rugiada Umidità Vento Precip. Alt. Aggiornato Tipo
RAWS SELAWIK AK, Selawik, AK 56 °F 33 °F 42% Nord  a  6 mph 0.00 in / hr 104 ft 1:49 PM AKDT MADIS

Show More Stations Show Fewer Stations